Time;durP1;ratioP1;P1;durP2;ratioP2;P2;SDS_P1;SDS_P2;PMS_P1;PMS_P2;Temp;Humidity;BMP_temperature;BMP_pressure;BME280_temperature;BME280_humidity;BME280_pressure;Samples;Min_cycle;Max_cycle;Signal;HPM_P1;HPM_P2
2023/05/05 00:01:59;;;;;;;10.50;4.18;;;11.60;99.90;;;;;;5009976;28;20848;-73
2023/05/05 00:04:24;;;;;;;11.00;3.93;;;11.60;99.90;;;;;;5010163;28;21182;-72
2023/05/05 00:06:50;;;;;;;7.68;3.47;;;11.70;99.90;;;;;;5007339;28;20475;-72
2023/05/05 00:09:16;;;;;;;7.88;3.25;;;11.70;99.90;;;;;;5011927;28;20867;-72
2023/05/05 00:11:42;;;;;;;7.95;4.00;;;11.70;99.90;;;;;;5003000;28;21285;-72
2023/05/05 00:14:07;;;;;;;6.40;3.40;;;11.70;99.90;;;;;;5023858;28;20460;-71
2023/05/05 00:16:33;;;;;;;9.93;3.03;;;11.70;99.90;;;;;;5018509;28;20520;-71
2023/05/05 00:19:00;;;;;;;6.72;3.00;;;11.80;99.90;;;;;;4992013;28;20980;-72
2023/05/05 00:21:26;;;;;;;10.10;3.75;;;11.80;99.90;;;;;;5021883;28;20438;-73
2023/05/05 00:23:52;;;;;;;9.65;3.58;;;11.80;99.90;;;;;;5006821;28;20423;-73
2023/05/05 00:26:18;;;;;;;8.20;3.33;;;11.80;99.90;;;;;;5009342;28;20473;-72
2023/05/05 00:28:44;;;;;;;8.63;3.80;;;11.80;99.90;;;;;;5010275;28;20821;-75
2023/05/05 00:31:09;;;;;;;7.43;3.47;;;11.80;99.90;;;;;;5007163;28;20436;-73
2023/05/05 00:33:35;;;;;;;5.47;2.83;;;11.80;99.90;;;;;;5005827;28;20508;-73
2023/05/05 00:36:01;;;;;;;7.43;3.75;;;11.80;99.90;;;;;;5008459;28;20443;-73
2023/05/05 00:38:27;;;;;;;11.20;3.78;;;11.70;99.90;;;;;;5008331;28;20455;-73
2023/05/05 00:40:53;;;;;;;8.27;3.50;;;11.80;99.90;;;;;;5006572;28;20944;-73
2023/05/05 00:43:18;;;;;;;8.60;4.47;;;11.70;99.90;;;;;;5007596;28;20420;-74
2023/05/05 00:45:46;;;;;;;8.73;4.20;;;11.70;99.90;;;;;;5004352;28;20426;-72
2023/05/05 00:48:13;;;;;;;6.47;3.38;;;11.70;99.90;;;;;;5003049;28;20425;-73
2023/05/05 00:50:39;;;;;;;8.55;3.88;;;11.60;99.90;;;;;;5006612;28;20428;-73
2023/05/05 00:53:05;;;;;;;7.13;3.70;;;11.70;99.90;;;;;;5002897;28;20893;-71
2023/05/05 00:55:32;;;;;;;8.07;3.73;;;11.60;99.90;;;;;;5006489;28;20541;-71
2023/05/05 00:57:59;;;;;;;8.23;3.53;;;11.50;99.90;;;;;;5004993;28;20523;-74
2023/05/05 01:00:26;;;;;;;7.82;3.80;;;11.50;99.90;;;;;;5010359;28;20452;-72
2023/05/05 01:02:52;;;;;;;8.10;3.60;;;11.50;99.90;;;;;;5005894;28;20424;-72
2023/05/05 01:05:20;;;;;;;11.38;3.85;;;11.50;99.90;;;;;;5097720;23;20455;-74
2023/05/05 01:08:01;;;;;;;8.40;3.63;;;11.50;99.90;;;;;;4985403;28;20438;-73
2023/05/05 01:10:49;;;;;;;9.80;3.90;;;11.50;99.90;;;;;;4992095;28;20420;-73
2023/05/05 01:13:31;;;;;;;8.63;3.65;;;11.40;99.90;;;;;;4987900;28;20428;-74
2023/05/05 01:16:10;;;;;;;8.40;3.60;;;11.40;99.90;;;;;;4975920;28;20425;-73
2023/05/05 01:18:52;;;;;;;8.35;3.55;;;11.30;99.90;;;;;;4987937;28;20466;-73
2023/05/05 01:21:26;;;;;;;7.25;3.78;;;11.30;99.90;;;;;;5002541;28;20446;-73
2023/05/05 01:24:16;;;;;;;9.47;4.57;;;11.30;99.90;;;;;;4985109;28;20502;-72
2023/05/05 01:26:50;;;;;;;6.45;3.30;;;11.30;99.90;;;;;;4996087;28;20447;-73
2023/05/05 01:29:52;;;;;;;7.85;3.53;;;11.20;99.90;;;;;;4992639;28;20456;-72
2023/05/05 01:32:26;;;;;;;6.57;3.70;;;11.20;99.90;;;;;;4996086;28;21233;-72
2023/05/05 01:34:54;;;;;;;8.23;4.32;;;11.20;99.90;;;;;;4988028;28;20497;-72
2023/05/05 01:38:00;;;;;;;7.25;3.63;;;11.20;99.90;;;;;;4997815;28;20429;-72
2023/05/05 01:40:30;;;;;;;8.63;3.75;;;11.20;99.90;;;;;;5007000;28;20436;-75
2023/05/05 01:42:57;;;;;;;8.43;4.30;;;11.20;99.90;;;;;;4996899;28;20435;-73
2023/05/05 01:45:30;;;;;;;11.00;5.15;;;11.20;99.90;;;;;;4966479;28;20500;-74
2023/05/05 01:47:57;;;;;;;8.35;3.63;;;11.30;99.90;;;;;;4996230;28;20443;-73
2023/05/05 01:50:26;;;;;;;5.18;3.70;;;11.20;99.90;;;;;;4995078;28;20785;-74
2023/05/05 01:52:53;;;;;;;9.75;3.58;;;11.10;99.90;;;;;;4994827;28;20535;-72
2023/05/05 01:55:20;;;;;;;10.00;4.80;;;11.20;99.90;;;;;;5006172;28;20428;-73
2023/05/05 01:57:47;;;;;;;10.15;3.88;;;11.00;99.90;;;;;;5001471;28;20495;-72
2023/05/05 02:00:15;;;;;;;6.97;3.70;;;11.10;99.90;;;;;;5003595;28;20755;-73
2023/05/05 02:02:44;;;;;;;9.20;5.22;;;11.00;99.90;;;;;;4980121;28;20450;-74
2023/05/05 02:05:11;;;;;;;6.90;4.65;;;11.10;99.90;;;;;;4992427;28;20855;-72
2023/05/05 02:07:37;;;;;;;7.35;4.13;;;11.10;99.90;;;;;;4988617;28;20437;-73
2023/05/05 02:10:04;;;;;;;6.65;3.88;;;11.00;99.90;;;;;;4986579;28;20422;-72
2023/05/05 02:12:34;;;;;;;7.78;4.10;;;11.00;99.90;;;;;;4993150;28;20781;-73
2023/05/05 02:15:02;;;;;;;10.68;4.95;;;11.00;99.90;;;;;;4987030;28;20489;-73
2023/05/05 02:17:29;;;;;;;6.35;3.78;;;11.00;99.90;;;;;;4986342;28;20525;-75
2023/05/05 02:19:57;;;;;;;8.45;4.68;;;11.00;99.90;;;;;;4982058;28;20435;-73
2023/05/05 02:22:23;;;;;;;10.38;4.65;;;11.00;99.90;;;;;;4972408;28;20522;-73
2023/05/05 02:24:49;;;;;;;10.07;4.50;;;11.00;99.90;;;;;;4989456;28;20433;-76
2023/05/05 02:27:17;;;;;;;7.97;4.43;;;11.10;99.90;;;;;;4987691;28;20787;-72
2023/05/05 02:29:57;;;;;;;8.13;3.95;;;11.10;99.90;;;;;;4984751;28;20991;-71
2023/05/05 02:32:34;;;;;;;6.13;3.90;;;11.00;99.90;;;;;;4987090;28;20802;-72
2023/05/05 02:35:08;;;;;;;5.40;3.70;;;11.00;99.90;;;;;;4987342;28;20437;-75
2023/05/05 02:37:35;;;;;;;7.07;3.47;;;10.90;99.90;;;;;;4988882;28;20982;-74
2023/05/05 02:40:03;;;;;;;7.15;3.83;;;10.90;99.90;;;;;;5002623;28;20430;-74
2023/05/05 02:42:40;;;;;;;8.95;3.97;;;11.00;99.90;;;;;;4999806;28;20842;-74
2023/05/05 02:45:16;;;;;;;5.70;4.17;;;11.10;99.90;;;;;;4989137;28;20525;-73
2023/05/05 02:47:42;;;;;;;6.67;4.10;;;11.10;99.90;;;;;;4989024;28;20537;-77
2023/05/05 02:50:08;;;;;;;6.95;3.88;;;11.20;99.90;;;;;;4988711;28;20873;-73
2023/05/05 02:52:34;;;;;;;8.48;3.78;;;11.10;99.90;;;;;;4990289;28;21223;-74
2023/05/05 02:55:01;;;;;;;8.63;4.05;;;11.00;99.90;;;;;;4968434;28;20432;-74
2023/05/05 02:57:39;;;;;;;7.47;4.60;;;11.10;99.90;;;;;;4990728;28;20426;-76
2023/05/05 03:00:23;;;;;;;10.15;4.03;;;10.90;99.90;;;;;;5001028;28;20487;-73
2023/05/05 03:03:04;;;;;;;8.03;3.93;;;11.00;99.90;;;;;;4972523;28;20438;-73
2023/05/05 03:05:44;;;;;;;11.05;3.55;;;11.00;99.90;;;;;;4986127;28;20426;-74
2023/05/05 03:08:19;;;;;;;8.18;4.07;;;11.00;99.90;;;;;;4990849;28;20926;-72
2023/05/05 03:11:00;;;;;;;9.15;3.90;;;11.00;99.90;;;;;;4977861;28;20430;-74
2023/05/05 03:13:28;;;;;;;9.07;3.53;;;11.10;99.90;;;;;;4984190;28;21067;-72
2023/05/05 03:15:54;;;;;;;6.05;4.10;;;11.20;99.90;;;;;;4997380;28;20521;-73
2023/05/05 03:18:22;;;;;;;12.55;5.07;;;11.20;99.90;;;;;;4986963;28;20945;-72
2023/05/05 03:20:49;;;;;;;12.85;4.43;;;11.20;99.90;;;;;;4985363;28;20435;-73
2023/05/05 03:23:19;;;;;;;7.25;3.97;;;11.30;99.90;;;;;;4991388;28;20424;-73
2023/05/05 03:25:47;;;;;;;6.50;4.30;;;11.30;99.90;;;;;;4988341;28;20423;-73
2023/05/05 03:28:14;;;;;;;7.72;4.72;;;11.40;99.90;;;;;;4995269;28;20447;-71
2023/05/05 03:30:40;;;;;;;7.10;4.00;;;11.40;99.90;;;;;;4992512;28;20407;-71
2023/05/05 03:33:06;;;;;;;8.07;4.35;;;11.50;99.90;;;;;;4993433;28;20433;-73
2023/05/05 03:35:32;;;;;;;7.75;4.68;;;11.50;99.90;;;;;;4992969;28;20425;-72
2023/05/05 03:37:58;;;;;;;7.00;4.97;;;11.50;99.90;;;;;;4990058;28;20515;-73
2023/05/05 03:40:23;;;;;;;11.20;5.90;;;11.60;99.90;;;;;;4988734;28;20436;-72
2023/05/05 03:42:49;;;;;;;7.47;5.22;;;11.60;99.90;;;;;;4991141;28;20451;-73
2023/05/05 03:45:15;;;;;;;8.93;5.25;;;11.60;99.90;;;;;;5002120;28;20475;-72
2023/05/05 03:47:40;;;;;;;8.55;5.03;;;11.50;99.90;;;;;;4999255;28;20436;-72
2023/05/05 03:50:07;;;;;;;6.55;4.65;;;11.50;99.90;;;;;;5005000;28;20422;-73
2023/05/05 03:52:32;;;;;;;7.90;4.97;;;11.30;99.90;;;;;;5007215;28;20460;-72
2023/05/05 03:54:58;;;;;;;7.65;4.95;;;11.40;99.90;;;;;;4990292;28;20512;-73
2023/05/05 03:57:25;;;;;;;9.10;5.38;;;11.40;99.90;;;;;;4999422;28;20433;-73
2023/05/05 03:59:51;;;;;;;12.90;5.55;;;11.10;99.90;;;;;;4979780;28;20440;-73
2023/05/05 04:02:17;;;;;;;7.40;4.95;;;10.90;99.90;;;;;;5007239;28;20448;-73
2023/05/05 04:04:43;;;;;;;11.03;5.60;;;11.00;99.90;;;;;;5005724;28;20426;-73
2023/05/05 04:07:08;;;;;;;9.45;5.55;;;10.90;99.90;;;;;;4990078;28;20442;-73
2023/05/05 04:09:34;;;;;;;8.43;5.73;;;10.90;99.90;;;;;;4995194;28;20431;-72
2023/05/05 04:12:00;;;;;;;6.10;5.40;;;10.50;99.90;;;;;;4992375;28;20438;-74
2023/05/05 04:14:26;;;;;;;9.07;5.63;;;10.60;99.90;;;;;;4996101;28;20905;-72
2023/05/05 04:16:51;;;;;;;7.37;5.43;;;10.80;99.90;;;;;;5005728;28;20916;-72
2023/05/05 04:19:17;;;;;;;8.57;5.27;;;10.60;99.90;;;;;;5002263;28;20900;-74
2023/05/05 04:21:43;;;;;;;8.50;5.83;;;10.50;99.90;;;;;;4989038;28;20430;-72
2023/05/05 04:24:09;;;;;;;14.63;7.57;;;10.30;99.90;;;;;;4990897;28;20473;-73
2023/05/05 04:26:34;;;;;;;12.13;6.28;;;10.10;99.90;;;;;;4990178;28;20865;-72
2023/05/05 04:29:00;;;;;;;11.07;7.17;;;10.20;99.90;;;;;;4988405;28;20497;-74
2023/05/05 04:31:26;;;;;;;12.07;6.83;;;10.00;99.90;;;;;;5002750;28;20858;-72
2023/05/05 04:33:51;;;;;;;10.18;6.95;;;9.90;99.90;;;;;;5010827;28;20396;-74
2023/05/05 04:36:18;;;;;;;12.50;7.20;;;9.70;99.90;;;;;;5008665;28;20599;-72
2023/05/05 04:38:43;;;;;;;10.05;7.45;;;9.70;99.90;;;;;;4977672;28;20420;-73
2023/05/05 04:41:09;;;;;;;11.60;7.80;;;9.80;99.90;;;;;;4993459;28;20439;-74
2023/05/05 04:43:35;;;;;;;10.03;7.77;;;9.80;99.90;;;;;;4991671;28;20566;-73
2023/05/05 04:46:00;;;;;;;11.60;7.37;;;9.70;99.90;;;;;;4985150;28;20454;-74
2023/05/05 04:48:26;;;;;;;11.47;7.90;;;9.70;99.90;;;;;;4991000;28;20415;-72
2023/05/05 04:50:52;;;;;;;9.23;7.43;;;9.60;99.90;;;;;;4988550;28;20430;-73
2023/05/05 04:53:17;;;;;;;13.10;8.20;;;9.90;99.90;;;;;;4990393;28;20461;-72
2023/05/05 04:55:43;;;;;;;10.52;9.45;;;9.70;99.90;;;;;;4991507;28;20430;-73
2023/05/05 04:58:09;;;;;;;13.10;9.63;;;10.00;99.90;;;;;;4992152;28;20428;-72
2023/05/05 05:00:36;;;;;;;10.68;9.18;;;10.00;99.90;;;;;;5001914;28;20826;-73
2023/05/05 05:03:02;;;;;;;12.35;8.80;;;9.80;99.90;;;;;;5008300;28;20412;-73
2023/05/05 05:05:28;;;;;;;12.20;8.93;;;10.10;99.90;;;;;;4991135;28;20439;-74
2023/05/05 05:07:54;;;;;;;17.15;9.93;;;9.90;99.90;;;;;;5001306;28;20440;-73
2023/05/05 05:10:20;;;;;;;13.95;10.65;;;9.80;99.90;;;;;;4997411;28;20521;-73
2023/05/05 05:12:46;;;;;;;16.00;10.15;;;10.10;99.90;;;;;;4992287;28;20441;-73
2023/05/05 05:15:12;;;;;;;11.02;8.50;;;10.00;99.90;;;;;;4988500;28;20832;-73
2023/05/05 05:17:38;;;;;;;10.30;8.65;;;10.10;99.90;;;;;;5008295;28;20491;-72
2023/05/05 05:20:05;;;;;;;13.13;8.47;;;10.20;99.90;;;;;;4993042;28;20422;-71
2023/05/05 05:22:31;;;;;;;9.60;7.50;;;10.10;99.90;;;;;;4985023;28;20468;-73
2023/05/05 05:24:57;;;;;;;10.05;8.90;;;10.30;99.90;;;;;;4989215;28;20774;-73
2023/05/05 05:27:22;;;;;;;11.77;8.35;;;10.40;99.90;;;;;;4987862;28;20484;-73
2023/05/05 05:29:48;;;;;;;11.53;7.73;;;10.40;99.90;;;;;;4988047;28;20461;-72
2023/05/05 05:32:14;;;;;;;12.17;9.47;;;10.70;99.90;;;;;;4996968;28;20428;-72
2023/05/05 05:34:40;;;;;;;13.87;9.03;;;10.80;99.90;;;;;;5008203;28;20404;-72
2023/05/05 05:37:05;;;;;;;10.83;8.63;;;10.90;99.90;;;;;;5004494;28;20535;-72
2023/05/05 05:39:31;;;;;;;9.70;7.77;;;10.60;99.90;;;;;;4987805;28;20470;-72
2023/05/05 05:41:56;;;;;;;10.90;9.23;;;10.60;99.90;;;;;;4997368;28;20440;-75
2023/05/05 05:44:22;;;;;;;10.97;8.50;;;10.80;99.90;;;;;;4988006;28;20530;-73
2023/05/05 05:46:48;;;;;;;9.38;8.23;;;10.70;99.90;;;;;;4990942;28;21031;-73
2023/05/05 05:49:15;;;;;;;16.35;9.25;;;10.50;99.90;;;;;;4989100;28;20422;-73
2023/05/05 05:51:40;;;;;;;14.23;9.50;;;10.60;99.90;;;;;;4987041;28;20696;-73
2023/05/05 05:54:06;;;;;;;14.10;9.93;;;10.70;99.90;;;;;;4987873;28;20553;-74
2023/05/05 05:56:32;;;;;;;13.43;9.15;;;10.90;99.90;;;;;;4991108;28;20455;-73
2023/05/05 05:58:57;;;;;;;12.80;9.13;;;11.00;99.90;;;;;;4987831;28;20422;-76
2023/05/05 06:01:23;;;;;;;10.33;9.30;;;11.00;99.90;;;;;;4992055;28;20424;-73
2023/05/05 06:03:49;;;;;;;14.23;9.57;;;11.00;99.90;;;;;;5004555;28;20930;-73
2023/05/05 06:06:14;;;;;;;11.30;8.83;;;10.90;99.90;;;;;;4986302;28;20867;-72
2023/05/05 06:08:40;;;;;;;10.80;8.30;;;11.10;99.90;;;;;;4984884;28;20442;-74
2023/05/05 06:11:05;;;;;;;10.73;8.33;;;11.20;99.90;;;;;;4987550;28;20506;-72
2023/05/05 06:13:31;;;;;;;13.52;8.98;;;10.90;99.90;;;;;;4988774;28;20422;-72
2023/05/05 06:15:57;;;;;;;11.75;9.27;;;11.10;99.90;;;;;;4987187;28;20418;-73
2023/05/05 06:18:22;;;;;;;13.53;9.77;;;11.20;99.90;;;;;;4988659;28;20949;-72
2023/05/05 06:20:49;;;;;;;10.83;8.97;;;11.10;99.90;;;;;;4986319;28;20493;-73
2023/05/05 06:23:15;;;;;;;13.43;8.63;;;11.30;99.90;;;;;;4987435;28;20506;-74
2023/05/05 06:25:41;;;;;;;11.80;9.13;;;11.20;99.90;;;;;;4986473;28;20501;-72
2023/05/05 06:28:06;;;;;;;10.57;9.10;;;11.30;99.90;;;;;;4988438;28;20418;-72
2023/05/05 06:30:32;;;;;;;13.40;10.40;;;11.40;99.90;;;;;;4986418;28;20422;-72
2023/05/05 06:32:58;;;;;;;10.55;9.45;;;11.50;99.90;;;;;;4986120;28;20470;-73
2023/05/05 06:35:23;;;;;;;20.38;9.43;;;11.30;99.90;;;;;;4999663;28;20449;-72
2023/05/05 06:37:49;;;;;;;10.10;8.27;;;11.60;99.90;;;;;;5005265;28;20417;-72
2023/05/05 06:40:15;;;;;;;12.35;9.00;;;11.50;99.90;;;;;;4995717;28;20428;-74
2023/05/05 06:42:40;;;;;;;13.55;8.82;;;11.90;99.90;;;;;;5004272;28;21159;-71
2023/05/05 06:45:07;;;;;;;13.20;8.13;;;11.90;99.90;;;;;;4985128;28;20465;-72
2023/05/05 06:47:32;;;;;;;10.90;8.07;;;12.60;99.90;;;;;;4985906;28;20426;-72
2023/05/05 06:49:58;;;;;;;12.68;7.97;;;13.10;99.90;;;;;;4989040;28;20431;-73
2023/05/05 06:52:25;;;;;;;10.15;8.02;;;12.90;99.90;;;;;;4997129;28;20888;-74
2023/05/05 06:54:50;;;;;;;14.85;8.98;;;12.60;99.90;;;;;;4985108;28;20457;-73
2023/05/05 06:57:16;;;;;;;11.40;8.10;;;13.20;99.90;;;;;;4986565;28;20438;-73
2023/05/05 06:59:42;;;;;;;15.03;8.33;;;14.10;99.90;;;;;;4987363;28;20424;-76
2023/05/05 07:02:07;;;;;;;10.73;8.53;;;14.30;99.90;;;;;;4997305;28;20479;-72
2023/05/05 07:04:33;;;;;;;14.70;8.37;;;14.40;99.90;;;;;;4995989;28;20539;-73
2023/05/05 07:06:58;;;;;;;9.55;8.15;;;15.20;99.90;;;;;;4987252;28;20446;-73
2023/05/05 07:09:24;;;;;;;10.55;8.73;;;14.80;99.90;;;;;;4985186;28;20458;-73
2023/05/05 07:11:50;;;;;;;9.80;7.72;;;16.00;99.90;;;;;;4993155;28;20787;-73
2023/05/05 07:14:15;;;;;;;12.93;8.23;;;16.20;99.90;;;;;;4984360;28;20426;-73
2023/05/05 07:16:41;;;;;;;9.27;8.27;;;17.10;99.90;;;;;;4992511;28;20439;-74
2023/05/05 07:19:07;;;;;;;9.50;7.80;;;17.70;99.90;;;;;;4989072;28;20436;-74
2023/05/05 07:21:35;;;;;;;8.03;7.20;;;17.80;99.90;;;;;;5000960;28;20441;-73
2023/05/05 07:24:04;;;;;;;10.05;7.60;;;17.00;99.90;;;;;;4991953;28;20434;-75
2023/05/05 07:26:30;;;;;;;12.30;8.15;;;16.90;99.90;;;;;;4985023;28;20799;-74
2023/05/05 07:28:57;;;;;;;9.33;8.37;;;15.50;99.90;;;;;;4985216;28;20458;-75
2023/05/05 07:31:23;;;;;;;11.60;8.50;;;15.60;99.90;;;;;;4977997;28;20953;-74
2023/05/05 07:33:49;;;;;;;11.48;7.68;;;15.60;99.90;;;;;;4992910;28;20433;-74
2023/05/05 07:36:17;;;;;;;11.65;8.40;;;15.50;99.90;;;;;;4995124;28;20428;-73
2023/05/05 07:38:43;;;;;;;13.40;8.77;;;15.80;99.90;;;;;;4979910;28;20863;-73
2023/05/05 07:41:10;;;;;;;13.20;9.20;;;15.40;99.90;;;;;;4983202;28;20511;-74
2023/05/05 07:43:36;;;;;;;11.43;8.77;;;15.20;99.90;;;;;;4988634;28;20517;-74
2023/05/05 07:46:02;;;;;;;10.27;8.88;;;15.90;99.90;;;;;;4986096;28;20422;-74
2023/05/05 07:48:29;;;;;;;10.90;8.93;;;16.30;99.90;;;;;;4988275;28;20772;-75
2023/05/05 07:50:54;;;;;;;10.20;9.05;;;16.70;99.90;;;;;;4991114;28;20470;-73
2023/05/05 07:53:20;;;;;;;11.05;9.32;;;16.80;99.90;;;;;;4991435;28;20421;-73
2023/05/05 07:55:46;;;;;;;13.75;9.73;;;16.30;99.90;;;;;;4988002;28;20441;-75
2023/05/05 07:58:11;;;;;;;12.27;9.20;;;15.60;99.90;;;;;;4993340;28;20431;-73
2023/05/05 08:00:38;;;;;;;12.73;10.43;;;15.80;99.90;;;;;;4983534;28;20509;-74
2023/05/05 08:03:03;;;;;;;11.77;10.53;;;15.90;99.90;;;;;;4986529;28;20432;-74
2023/05/05 08:05:29;;;;;;;12.53;10.30;;;15.60;99.90;;;;;;4993525;28;20464;-73
2023/05/05 08:07:55;;;;;;;14.13;10.97;;;15.30;99.90;;;;;;4990966;28;20442;-74
2023/05/05 08:10:21;;;;;;;12.75;11.15;;;15.40;99.90;;;;;;4990610;28;20427;-75
2023/05/05 08:12:47;;;;;;;16.60;11.40;;;15.80;99.90;;;;;;4990035;28;20911;-74
2023/05/05 08:15:13;;;;;;;11.37;10.17;;;15.90;99.90;;;;;;4986082;28;20478;-73
2023/05/05 08:17:50;;;;;;;15.07;11.10;;;16.00;99.90;;;;;;5006348;28;20463;-74
2023/05/05 08:20:17;;;;;;;13.15;11.07;;;16.00;99.90;;;;;;4993015;28;20451;-74
2023/05/05 08:22:43;;;;;;;13.53;11.10;;;15.90;99.90;;;;;;4990708;28;20449;-76
2023/05/05 08:25:12;;;;;;;12.48;11.18;;;16.10;99.90;;;;;;4985065;28;20460;-74
2023/05/05 08:27:39;;;;;;;14.25;11.05;;;16.80;99.90;;;;;;4986401;28;20465;-74
2023/05/05 08:30:05;;;;;;;16.30;11.07;;;16.90;99.90;;;;;;4991571;28;20421;-74
2023/05/05 08:32:31;;;;;;;13.15;11.75;;;16.80;99.90;;;;;;4981632;28;20853;-73
2023/05/05 08:34:57;;;;;;;14.88;12.75;;;16.20;99.90;;;;;;4984548;28;20434;-74
2023/05/05 08:37:22;;;;;;;14.70;12.45;;;16.50;99.90;;;;;;4988474;28;20538;-74
2023/05/05 08:39:48;;;;;;;15.90;13.27;;;16.50;99.90;;;;;;4987807;28;20438;-74
2023/05/05 08:42:14;;;;;;;15.25;13.43;;;16.70;99.90;;;;;;4986290;28;20430;-74
2023/05/05 08:44:40;;;;;;;12.80;11.40;;;16.70;99.90;;;;;;4990147;28;20417;-74
2023/05/05 08:47:09;;;;;;;15.40;12.77;;;16.90;99.90;;;;;;4987565;28;20429;-73
2023/05/05 08:49:42;;;;;;;16.67;13.00;;;17.00;99.90;;;;;;4990380;28;20414;-74
2023/05/05 08:52:10;;;;;;;14.07;12.57;;;17.30;99.90;;;;;;4998243;28;20440;-74
2023/05/05 08:54:41;;;;;;;15.20;13.60;;;17.60;99.90;;;;;;4995233;28;20533;-74
2023/05/05 08:57:09;;;;;;;17.33;13.43;;;17.20;99.90;;;;;;4989621;28;20418;-73
2023/05/05 08:59:36;;;;;;;15.93;14.23;;;17.00;99.90;;;;;;4990018;28;20412;-73
2023/05/05 09:02:04;;;;;;;15.35;13.68;;;17.00;99.90;;;;;;4996599;28;20433;-73
2023/05/05 09:04:30;;;;;;;15.60;14.02;;;17.50;99.90;;;;;;4995039;28;20429;-75
2023/05/05 09:06:59;;;;;;;18.60;15.23;;;17.70;99.90;;;;;;4990582;28;20469;-74
2023/05/05 09:09:26;;;;;;;20.70;16.58;;;17.90;99.90;;;;;;4997530;28;20817;-73
2023/05/05 09:11:54;;;;;;;19.27;15.93;;;18.00;99.90;;;;;;4995747;28;20458;-74
2023/05/05 09:14:20;;;;;;;20.60;18.23;;;18.10;99.90;;;;;;5008267;28;20455;-77
2023/05/05 09:16:45;;;;;;;20.10;16.90;;;18.10;99.90;;;;;;5001836;28;20448;-73
2023/05/05 09:19:11;;;;;;;19.45;17.38;;;18.10;99.90;;;;;;4988060;28;20460;-75
2023/05/05 09:21:45;;;;;;;19.17;17.38;;;18.10;99.90;;;;;;4985767;28;20440;-74
2023/05/05 09:24:13;;;;;;;18.58;16.73;;;18.20;99.90;;;;;;4988870;28;20493;-74
2023/05/05 09:26:44;;;;;;;20.98;17.80;;;18.30;99.90;;;;;;4991103;28;20533;-75
2023/05/05 09:29:19;;;;;;;20.30;18.23;;;18.20;99.90;;;;;;4988353;28;20437;-74
2023/05/05 09:32:07;;;;;;;21.35;19.15;;;18.40;99.90;;;;;;4993014;28;20474;-75
2023/05/05 09:34:34;;;;;;;21.02;18.27;;;18.00;99.90;;;;;;5001056;28;20460;-75
2023/05/05 09:37:00;;;;;;;19.45;17.30;;;18.40;99.90;;;;;;4995909;28;20453;-74
2023/05/05 09:39:26;;;;;;;19.38;17.40;;;18.70;99.90;;;;;;5000392;28;20428;-72
2023/05/05 09:41:51;;;;;;;20.42;17.05;;;18.90;99.90;;;;;;4996151;28;21088;-74
2023/05/05 09:44:33;;;;;;;17.50;15.63;;;18.60;99.90;;;;;;4991763;28;20434;-75
2023/05/05 09:46:59;;;;;;;17.27;14.48;;;18.70;99.90;;;;;;4990027;28;20433;-74
2023/05/05 09:49:28;;;;;;;20.48;16.75;;;19.10;99.90;;;;;;4987418;28;20549;-75
2023/05/05 09:51:54;;;;;;;18.07;16.13;;;19.20;99.90;;;;;;4989395;28;20526;-76
2023/05/05 09:54:29;;;;;;;16.30;13.27;;;19.30;99.90;;;;;;5005165;28;20508;-78
2023/05/05 09:56:56;;;;;;;12.98;11.68;;;19.20;99.90;;;;;;4997742;28;20438;-77
2023/05/05 09:59:22;;;;;;;13.77;12.10;;;19.30;99.90;;;;;;4987280;28;20427;-76
2023/05/05 10:01:49;;;;;;;14.68;13.18;;;19.60;99.90;;;;;;4992712;28;20526;-76
2023/05/05 10:04:29;;;;;;;14.38;12.95;;;19.40;99.90;;;;;;4971334;28;20572;-75
2023/05/05 10:06:56;;;;;;;17.43;14.37;;;19.40;99.90;;;;;;4987152;28;20419;-75
2023/05/05 10:09:26;;;;;;;15.38;13.85;;;19.20;99.90;;;;;;5006036;28;20483;-76
2023/05/05 10:11:54;;;;;;;17.77;14.90;;;19.30;99.90;;;;;;5007396;28;20389;-77
2023/05/05 10:14:22;;;;;;;18.42;15.98;;;19.50;99.90;;;;;;4973804;28;20441;-76
2023/05/05 10:16:49;;;;;;;19.50;17.38;;;20.00;99.90;;;;;;4989281;28;20945;-78
2023/05/05 10:19:17;;;;;;;17.63;15.67;;;19.60;99.90;;;;;;4997626;28;20426;-78
2023/05/05 10:21:48;;;;;;;15.60;14.00;;;19.90;99.90;;;;;;4996572;28;20440;-75
2023/05/05 10:24:22;;;;;;;15.27;13.68;;;20.10;99.90;;;;;;5003882;28;20417;-77
2023/05/05 10:26:48;;;;;;;16.25;14.57;;;20.10;99.90;;;;;;4989293;28;21028;-80
2023/05/05 10:29:32;;;;;;;16.38;14.10;;;19.70;99.90;;;;;;4992438;28;20418;-72
2023/05/05 10:32:07;;;;;;;17.07;15.37;;;19.60;99.90;;;;;;4980146;28;20428;-74
2023/05/05 10:34:48;;;;;;;15.85;12.85;;;19.50;99.90;;;;;;4987643;28;20418;-74
2023/05/05 10:37:17;;;;;;;16.65;14.10;;;19.20;99.90;;;;;;4967897;28;20934;-74
2023/05/05 10:39:44;;;;;;;15.15;13.50;;;19.00;99.90;;;;;;4988625;28;20870;-73
2023/05/05 10:42:12;;;;;;;16.25;13.15;;;19.30;99.90;;;;;;4987321;28;20434;-73
2023/05/05 10:44:38;;;;;;;12.45;10.57;;;19.40;99.90;;;;;;5004204;28;20460;-73
2023/05/05 10:47:05;;;;;;;13.40;11.17;;;19.00;99.90;;;;;;4986333;28;20436;-74
2023/05/05 10:49:43;;;;;;;13.57;10.85;;;19.30;99.90;;;;;;5002108;28;20500;-73
2023/05/05 10:52:28;;;;;;;13.77;11.07;;;19.60;99.90;;;;;;4986768;28;20442;-73
2023/05/05 10:55:05;;;;;;;13.13;10.27;;;19.70;99.90;;;;;;4989219;28;20426;-73
2023/05/05 10:57:34;;;;;;;13.43;10.32;;;19.90;99.90;;;;;;4993793;28;20484;-72
2023/05/05 11:00:00;;;;;;;14.60;10.33;;;20.10;99.90;;;;;;4986884;28;20431;-72
2023/05/05 11:02:27;;;;;;;13.03;10.10;;;20.20;99.90;;;;;;4986540;28;20461;-72
2023/05/05 11:05:08;;;;;;;12.32;9.38;;;20.20;99.90;;;;;;4987915;28;20427;-72
2023/05/05 11:07:37;;;;;;;11.55;9.90;;;19.80;99.90;;;;;;4995392;28;20436;-72
2023/05/05 11:10:05;;;;;;;12.32;9.13;;;19.80;99.90;;;;;;4986161;28;20422;-72
2023/05/05 11:12:32;;;;;;;9.73;7.90;;;19.50;99.90;;;;;;4987123;28;20426;-72
2023/05/05 11:15:25;;;;;;;10.10;6.72;;;19.60;99.90;;;;;;4984412;28;20803;-75
2023/05/05 11:17:55;;;;;;;10.52;7.22;;;19.40;99.90;;;;;;4985727;28;20430;-71
2023/05/05 11:20:36;;;;;;;9.85;6.13;;;19.60;99.90;;;;;;4983304;28;20418;-74
2023/05/05 11:23:02;;;;;;;9.00;6.22;;;19.70;99.90;;;;;;4984613;28;20438;-72
2023/05/05 11:25:39;;;;;;;8.20;5.78;;;19.60;99.90;;;;;;4968470;28;20426;-74
2023/05/05 11:28:13;;;;;;;8.63;7.00;;;20.00;99.90;;;;;;4984233;28;21076;-73
2023/05/05 11:30:53;;;;;;;9.68;8.02;;;20.10;99.90;;;;;;4973322;28;20433;-73
2023/05/05 11:33:35;;;;;;;10.93;7.82;;;19.90;99.90;;;;;;4983767;28;20447;-73
2023/05/05 11:36:06;;;;;;;8.82;7.85;;;19.80;99.90;;;;;;4986907;28;20410;-72
2023/05/05 11:38:38;;;;;;;12.10;7.30;;;19.60;99.90;;;;;;4998135;28;20509;-71
2023/05/05 11:41:13;;;;;;;10.85;7.25;;;19.70;99.90;;;;;;4985898;28;20419;-73
2023/05/05 11:43:42;;;;;;;11.02;6.10;;;19.60;99.90;;;;;;4989920;28;20442;-72
2023/05/05 11:46:17;;;;;;;8.90;6.57;;;19.80;99.90;;;;;;4985730;28;20418;-73
2023/05/05 11:48:48;;;;;;;9.02;6.70;;;19.70;99.90;;;;;;4985741;28;20429;-72
2023/05/05 11:51:17;;;;;;;8.65;7.03;;;19.50;99.90;;;;;;5001710;28;20747;-72
2023/05/05 11:53:47;;;;;;;7.63;5.97;;;19.60;99.90;;;;;;4990607;28;20502;-72
2023/05/05 11:56:17;;;;;;;7.50;6.70;;;19.60;99.90;;;;;;4988643;28;20431;-71
2023/05/05 11:58:44;;;;;;;13.80;6.70;;;19.70;99.90;;;;;;4994302;28;20754;-72
2023/05/05 12:01:10;;;;;;;7.13;6.43;;;19.60;99.90;;;;;;4973171;28;20426;-72
2023/05/05 12:03:37;;;;;;;7.83;7.03;;;19.50;99.90;;;;;;4985746;28;20422;-73
2023/05/05 12:06:03;;;;;;;8.77;7.20;;;19.40;99.90;;;;;;4993646;28;20429;-73
2023/05/05 12:08:39;;;;;;;11.25;7.53;;;19.40;99.90;;;;;;5002012;28;20438;-72
2023/05/05 12:11:09;;;;;;;10.75;8.93;;;19.60;99.90;;;;;;4982421;28;20930;-72
2023/05/05 12:13:35;;;;;;;10.20;9.13;;;19.20;99.90;;;;;;4989848;28;20406;-73
2023/05/05 12:16:11;;;;;;;10.73;9.10;;;19.10;99.90;;;;;;4988470;28;20453;-72
2023/05/05 12:18:38;;;;;;;10.73;9.65;;;19.00;99.90;;;;;;4994683;28;20448;-73
2023/05/05 12:21:20;;;;;;;9.90;7.70;;;18.80;99.90;;;;;;5008540;28;20780;-72
2023/05/05 12:23:46;;;;;;;15.07;10.02;;;18.60;99.90;;;;;;4996370;28;20430;-71
2023/05/05 12:26:32;;;;;;;12.27;10.20;;;18.50;99.90;;;;;;4993091;28;20412;-72
2023/05/05 12:28:58;;;;;;;16.73;11.40;;;18.20;99.90;;;;;;4995635;28;20540;-74
2023/05/05 12:31:34;;;;;;;10.90;8.88;;;18.00;99.90;;;;;;4998227;28;20789;-72
2023/05/05 12:34:01;;;;;;;10.57;8.88;;;18.10;99.90;;;;;;5000314;28;20429;-71
2023/05/05 12:36:28;;;;;;;10.27;8.40;;;17.80;99.90;;;;;;4991973;28;20434;-72
2023/05/05 12:38:54;;;;;;;11.40;8.38;;;17.60;99.90;;;;;;4995513;28;20428;-74
2023/05/05 12:41:21;;;;;;;13.30;9.90;;;17.40;99.90;;;;;;5008254;28;20417;-73
2023/05/05 12:43:47;;;;;;;14.57;10.00;;;17.40;99.90;;;;;;4973729;28;20642;-73
2023/05/05 12:46:13;;;;;;;9.53;8.50;;;17.30;99.90;;;;;;4982019;28;20508;-71